Cheraw, South Carolina
Current Conditions -  °F | °C
As of 5:55 AM on Monday 20 Oct 2014 (Local Time) from KCQW Reporting Station
Moderate Fog Moderate Fog  
Wind Chill: 37°   Ceiling: NA
Heat Index: 37°   Visibility: 0.5mi
Dew Point: 37°   Wind: 0mph
Humidity: 100%   Direction: NA
Pressure: 30.15"   Gusts: NA
Location:  34.7°N, 79.88°W
Report Text: KCQW 200955Z AUTO 00000KT 1/2SM FG 03/03 A3015 RMK AO2
Loading
Personal Weather Stations






























Interactive Weather Map
Tropical Storm Tracking
New forecast layout! Learn more

10-Day Weather Forecast

Advertisements
Track Severe Weather on mobile